Time;durP1;ratioP1;P1;durP2;ratioP2;P2;SDS_P1;SDS_P2;PMS_P1;PMS_P2;Temp;Humidity;BMP_temperature;BMP_pressure;BME280_temperature;BME280_humidity;BME280_pressure;Samples;Min_cycle;Max_cycle;Signal;HPM_P1;HPM_P2
2024/01/16 00:00:30;;;;;;;15.53;10.13;;;;;;;;;;5111759;28;20719;-81
2024/01/16 00:02:58;;;;;;;14.47;9.60;;;;;;;;;;5111911;28;20732;-82
2024/01/16 00:05:25;;;;;;;15.00;9.20;;;;;;;;;;5111666;28;20297;-82
2024/01/16 00:07:52;;;;;;;13.57;9.43;;;;;;;;;;5111631;28;20274;-82
2024/01/16 00:10:21;;;;;;;18.03;9.53;;;;;;;;;;5111900;28;20278;-81
2024/01/16 00:12:48;;;;;;;13.73;9.47;;;;;;;;;;5111756;28;20234;-82
2024/01/16 00:15:16;;;;;;;15.17;9.87;;;;;;;;;;5110284;28;20197;-81
2024/01/16 00:17:43;;;;;;;15.60;9.67;;;;;;;;;;5111616;28;20197;-82
2024/01/16 00:20:10;;;;;;;15.03;11.00;;;;;;;;;;5111382;28;20245;-82
2024/01/16 00:22:38;;;;;;;18.90;11.13;;;;;;;;;;5111487;28;20674;-81
2024/01/16 00:25:05;;;;;;;17.03;11.03;;;;;;;;;;5111295;28;20284;-82
2024/01/16 00:27:34;;;;;;;16.27;10.90;;;;;;;;;;5112053;28;20225;-81
2024/01/16 00:30:01;;;;;;;15.50;10.80;;;;;;;;;;5114378;28;20198;-81
2024/01/16 00:32:29;;;;;;;15.97;10.47;;;;;;;;;;5115542;28;20268;-82
2024/01/16 00:34:56;;;;;;;16.30;10.70;;;;;;;;;;5115457;28;20287;-82
2024/01/16 00:37:23;;;;;;;18.33;11.03;;;;;;;;;;5115214;28;20220;-83
2024/01/16 00:39:50;;;;;;;19.43;10.60;;;;;;;;;;5115932;28;20213;-81
2024/01/16 00:42:17;;;;;;;17.60;10.63;;;;;;;;;;5115360;27;20235;-82
2024/01/16 00:44:46;;;;;;;17.93;10.90;;;;;;;;;;5115587;27;20211;-81
2024/01/16 00:47:13;;;;;;;15.80;9.77;;;;;;;;;;5115686;28;20224;-82
2024/01/16 00:49:40;;;;;;;15.03;10.03;;;;;;;;;;5114997;28;20189;-82
2024/01/16 00:52:08;;;;;;;15.73;10.03;;;;;;;;;;5114965;28;20316;-81
2024/01/16 00:54:35;;;;;;;17.57;10.97;;;;;;;;;;5115160;28;20224;-82
2024/01/16 00:57:02;;;;;;;16.67;9.73;;;;;;;;;;5114907;28;20647;-82
2024/01/16 00:59:29;;;;;;;17.07;10.33;;;;;;;;;;5115287;28;20276;-82
2024/01/16 01:01:58;;;;;;;15.63;10.33;;;;;;;;;;5115226;28;20316;-82
2024/01/16 01:04:25;;;;;;;13.93;9.83;;;;;;;;;;5114921;28;20272;-82
2024/01/16 01:06:53;;;;;;;14.37;9.83;;;;;;;;;;5115047;28;20666;-82
2024/01/16 01:09:20;;;;;;;14.90;9.73;;;;;;;;;;5115021;28;20287;-82
2024/01/16 01:11:48;;;;;;;17.03;9.77;;;;;;;;;;5114630;28;20285;-81
2024/01/16 01:14:15;;;;;;;13.37;9.63;;;;;;;;;;5114580;28;20204;-81
2024/01/16 01:16:42;;;;;;;14.33;9.90;;;;;;;;;;5114494;28;20287;-81
2024/01/16 01:19:12;;;;;;;15.97;9.63;;;;;;;;;;5114825;28;20201;-82
2024/01/16 01:21:40;;;;;;;16.40;10.40;;;;;;;;;;5114584;28;20596;-82
2024/01/16 01:24:07;;;;;;;14.83;9.50;;;;;;;;;;5114769;28;20199;-82
2024/01/16 01:26:34;;;;;;;13.57;9.13;;;;;;;;;;5114321;28;20200;-81
2024/01/16 01:29:02;;;;;;;13.90;9.33;;;;;;;;;;5114553;28;20227;-81
2024/01/16 01:31:29;;;;;;;13.70;9.03;;;;;;;;;;5114236;28;20211;-82
2024/01/16 01:33:56;;;;;;;14.90;9.27;;;;;;;;;;5114623;28;20233;-81
2024/01/16 01:36:25;;;;;;;14.63;9.17;;;;;;;;;;5114574;28;20274;-82
2024/01/16 01:38:52;;;;;;;13.47;9.37;;;;;;;;;;5114092;28;20233;-82
2024/01/16 01:41:19;;;;;;;14.50;9.70;;;;;;;;;;5114032;28;20205;-81
2024/01/16 01:43:46;;;;;;;17.07;9.63;;;;;;;;;;5114802;28;20211;-83
2024/01/16 01:46:15;;;;;;;17.03;10.00;;;;;;;;;;5113221;28;20233;-82
2024/01/16 01:48:43;;;;;;;14.90;10.03;;;;;;;;;;5114637;28;20291;-81
2024/01/16 01:51:10;;;;;;;15.53;9.97;;;;;;;;;;5113970;28;20228;-82
2024/01/16 01:53:40;;;;;;;15.13;9.60;;;;;;;;;;5114273;28;20335;-82
2024/01/16 01:56:09;;;;;;;16.67;9.80;;;;;;;;;;5114249;28;20194;-82
2024/01/16 01:58:38;;;;;;;15.87;9.73;;;;;;;;;;5114267;28;20221;-80
2024/01/16 02:01:07;;;;;;;15.00;9.93;;;;;;;;;;5113565;28;20244;-81
2024/01/16 02:03:37;;;;;;;15.07;9.53;;;;;;;;;;5114255;28;20208;-81
2024/01/16 02:06:04;;;;;;;15.37;10.40;;;;;;;;;;5114096;28;20284;-82
2024/01/16 02:08:32;;;;;;;18.43;10.73;;;;;;;;;;5113511;28;20286;-81
2024/01/16 02:11:00;;;;;;;17.60;11.13;;;;;;;;;;5113734;28;20228;-81
2024/01/16 02:13:27;;;;;;;19.13;11.43;;;;;;;;;;5113481;28;20283;-81
2024/01/16 02:15:55;;;;;;;18.37;11.07;;;;;;;;;;5113287;28;20220;-80
2024/01/16 02:18:22;;;;;;;16.37;10.93;;;;;;;;;;5112428;28;20578;-81
2024/01/16 02:20:49;;;;;;;14.60;10.13;;;;;;;;;;5113418;28;20288;-81
2024/01/16 02:23:17;;;;;;;15.70;10.10;;;;;;;;;;5113391;28;20240;-81
2024/01/16 02:25:46;;;;;;;13.23;9.23;;;;;;;;;;5113472;28;20685;-81
2024/01/16 02:28:13;;;;;;;15.10;10.00;;;;;;;;;;5113779;28;20193;-81
2024/01/16 02:30:43;;;;;;;15.60;9.77;;;;;;;;;;5113100;28;20295;-81
2024/01/16 02:33:10;;;;;;;16.60;10.03;;;;;;;;;;5113225;28;20278;-81
2024/01/16 02:35:37;;;;;;;15.13;9.73;;;;;;;;;;5113504;28;20283;-80
2024/01/16 02:38:05;;;;;;;16.00;10.27;;;;;;;;;;5113066;28;20227;-81
2024/01/16 02:40:32;;;;;;;16.37;9.40;;;;;;;;;;5113008;28;20292;-81
2024/01/16 02:43:01;;;;;;;15.50;9.73;;;;;;;;;;5112869;28;20207;-82
2024/01/16 02:45:28;;;;;;;16.23;9.23;;;;;;;;;;5112695;28;20288;-82
2024/01/16 02:47:55;;;;;;;14.67;9.67;;;;;;;;;;5113457;28;20223;-81
2024/01/16 02:50:23;;;;;;;13.80;8.73;;;;;;;;;;5112533;28;20884;-81
2024/01/16 02:52:50;;;;;;;14.30;8.47;;;;;;;;;;5111873;28;20331;-81
2024/01/16 02:55:17;;;;;;;14.17;8.67;;;;;;;;;;5112440;27;20642;-81
2024/01/16 02:57:44;;;;;;;13.77;8.43;;;;;;;;;;5102726;28;20572;-80
2024/01/16 03:00:14;;;;;;;12.43;8.37;;;;;;;;;;5110243;28;20782;-81
2024/01/16 03:02:41;;;;;;;13.67;8.73;;;;;;;;;;5112194;28;20282;-82
2024/01/16 03:05:09;;;;;;;13.77;8.70;;;;;;;;;;5112768;28;20658;-81
2024/01/16 03:07:36;;;;;;;13.93;9.37;;;;;;;;;;5112810;28;20543;-81
2024/01/16 03:10:03;;;;;;;13.77;9.60;;;;;;;;;;5112853;28;20740;-80
2024/01/16 03:12:31;;;;;;;14.53;9.10;;;;;;;;;;5111980;28;20240;-81
2024/01/16 03:14:58;;;;;;;13.53;8.57;;;;;;;;;;5112697;28;20197;-81
2024/01/16 03:17:26;;;;;;;14.63;8.70;;;;;;;;;;5112416;28;20283;-82
2024/01/16 03:19:53;;;;;;;12.43;8.30;;;;;;;;;;5112423;28;20204;-81
2024/01/16 03:22:22;;;;;;;12.67;8.10;;;;;;;;;;5111910;28;20588;-81
2024/01/16 03:24:50;;;;;;;13.70;7.70;;;;;;;;;;5112834;28;20196;-81
2024/01/16 03:27:17;;;;;;;13.13;8.17;;;;;;;;;;5111946;28;20202;-81
2024/01/16 03:29:45;;;;;;;12.57;8.27;;;;;;;;;;5112169;28;20238;-81
2024/01/16 03:32:12;;;;;;;12.17;7.77;;;;;;;;;;5112334;28;20192;-81
2024/01/16 03:34:41;;;;;;;12.03;7.97;;;;;;;;;;5111808;28;20296;-82
2024/01/16 03:37:08;;;;;;;12.83;8.27;;;;;;;;;;5112430;28;20205;-80
2024/01/16 03:39:35;;;;;;;11.17;7.70;;;;;;;;;;5112308;28;20197;-81
2024/01/16 03:42:02;;;;;;;10.10;7.30;;;;;;;;;;5111726;28;20612;-81
2024/01/16 03:44:30;;;;;;;13.43;7.53;;;;;;;;;;5111814;28;20283;-82
2024/01/16 03:46:57;;;;;;;12.27;7.67;;;;;;;;;;5112108;28;20201;-81
2024/01/16 03:49:25;;;;;;;10.07;6.93;;;;;;;;;;5111864;28;20301;-81
2024/01/16 03:51:53;;;;;;;10.23;6.63;;;;;;;;;;5111917;28;20247;-81
2024/01/16 03:54:21;;;;;;;10.80;6.90;;;;;;;;;;5111635;28;20717;-81
2024/01/16 03:56:48;;;;;;;11.83;6.73;;;;;;;;;;5111621;28;20604;-80
2024/01/16 03:59:15;;;;;;;9.13;6.73;;;;;;;;;;5111933;28;20217;-81
2024/01/16 04:01:43;;;;;;;9.27;6.27;;;;;;;;;;5112012;28;20237;-81
2024/01/16 04:04:11;;;;;;;8.93;5.93;;;;;;;;;;5111770;28;20688;-81
2024/01/16 04:06:38;;;;;;;8.50;5.90;;;;;;;;;;5111755;28;20620;-80
2024/01/16 04:09:08;;;;;;;10.00;5.50;;;;;;;;;;5111931;28;20193;-81
2024/01/16 04:11:35;;;;;;;10.20;6.60;;;;;;;;;;5111466;28;20197;-81
2024/01/16 04:14:02;;;;;;;10.13;6.37;;;;;;;;;;5111780;28;20694;-80
2024/01/16 04:16:29;;;;;;;10.90;6.20;;;;;;;;;;5111548;28;20192;-81
2024/01/16 04:18:57;;;;;;;9.07;5.93;;;;;;;;;;5111714;28;20194;-82
2024/01/16 04:21:24;;;;;;;11.43;5.80;;;;;;;;;;5111739;28;20285;-81
2024/01/16 04:23:51;;;;;;;10.87;6.03;;;;;;;;;;5111559;28;20243;-82
2024/01/16 04:26:21;;;;;;;8.63;5.33;;;;;;;;;;5111250;28;20201;-82
2024/01/16 04:28:48;;;;;;;8.23;5.40;;;;;;;;;;5111668;28;20201;-81
2024/01/16 04:31:17;;;;;;;7.50;5.37;;;;;;;;;;5111375;28;20696;-81
2024/01/16 04:33:44;;;;;;;10.33;5.30;;;;;;;;;;5111160;28;20225;-81
2024/01/16 04:36:11;;;;;;;7.83;5.20;;;;;;;;;;5111653;28;20221;-81
2024/01/16 04:38:39;;;;;;;8.33;5.40;;;;;;;;;;5111355;28;20235;-81
2024/01/16 04:41:06;;;;;;;8.93;5.60;;;;;;;;;;5111066;28;20856;-81
2024/01/16 04:43:34;;;;;;;10.90;5.63;;;;;;;;;;5111399;28;20205;-81
2024/01/16 04:46:02;;;;;;;8.60;5.80;;;;;;;;;;5111613;28;20194;-82
2024/01/16 04:48:30;;;;;;;10.00;5.80;;;;;;;;;;5111545;28;20218;-81
2024/01/16 04:50:57;;;;;;;9.77;5.57;;;;;;;;;;5111402;28;20220;-81
2024/01/16 04:53:24;;;;;;;9.00;6.53;;;;;;;;;;5111301;28;20260;-81
2024/01/16 04:55:52;;;;;;;9.90;6.70;;;;;;;;;;5110946;28;20194;-82
2024/01/16 04:58:19;;;;;;;9.87;6.23;;;;;;;;;;5111430;28;20197;-81
2024/01/16 05:00:48;;;;;;;8.50;6.10;;;;;;;;;;5111473;28;20200;-81
2024/01/16 05:03:15;;;;;;;7.80;5.43;;;;;;;;;;5111033;28;20221;-81
2024/01/16 05:05:43;;;;;;;8.30;4.87;;;;;;;;;;5110877;28;20720;-82
2024/01/16 05:08:10;;;;;;;8.07;4.80;;;;;;;;;;5111615;28;20760;-82
2024/01/16 05:10:37;;;;;;;9.27;6.60;;;;;;;;;;5110935;28;20283;-82
2024/01/16 05:13:04;;;;;;;10.87;7.50;;;;;;;;;;5111015;28;20331;-82
2024/01/16 05:15:32;;;;;;;12.23;7.77;;;;;;;;;;5112997;28;20280;-82
2024/01/16 05:18:00;;;;;;;10.73;7.10;;;;;;;;;;5114794;28;20225;-81
2024/01/16 05:20:29;;;;;;;10.00;6.90;;;;;;;;;;5114347;28;20708;-82
2024/01/16 05:22:56;;;;;;;13.63;7.03;;;;;;;;;;5114651;28;20193;-80
2024/01/16 05:25:24;;;;;;;9.93;7.03;;;;;;;;;;5114625;28;20201;-81
2024/01/16 05:27:51;;;;;;;11.03;7.03;;;;;;;;;;5114537;28;20277;-81
2024/01/16 05:30:19;;;;;;;10.50;6.67;;;;;;;;;;5114739;27;20287;-81
2024/01/16 05:32:46;;;;;;;9.80;6.10;;;;;;;;;;5114324;28;20637;-81
2024/01/16 05:35:15;;;;;;;10.03;5.93;;;;;;;;;;5114660;28;20308;-81
2024/01/16 05:37:42;;;;;;;8.53;5.97;;;;;;;;;;5114045;28;20310;-81
2024/01/16 05:40:09;;;;;;;9.10;6.03;;;;;;;;;;5114608;28;20288;-82
2024/01/16 05:42:37;;;;;;;8.40;5.70;;;;;;;;;;5114143;28;20308;-81
2024/01/16 05:45:04;;;;;;;10.77;6.17;;;;;;;;;;5114128;28;20193;-80
2024/01/16 05:47:32;;;;;;;8.77;5.93;;;;;;;;;;5114587;28;20218;-81
2024/01/16 05:49:59;;;;;;;9.30;6.23;;;;;;;;;;5114109;28;20205;-80
2024/01/16 05:52:29;;;;;;;8.40;5.93;;;;;;;;;;5113882;28;20196;-81
2024/01/16 05:54:58;;;;;;;8.87;6.20;;;;;;;;;;5114127;28;20234;-82
2024/01/16 05:57:25;;;;;;;10.93;6.23;;;;;;;;;;5114118;28;20219;-81
2024/01/16 05:59:52;;;;;;;8.27;5.67;;;;;;;;;;5113597;28;20292;-81
2024/01/16 06:02:19;;;;;;;9.53;5.87;;;;;;;;;;5114208;28;20236;-81
2024/01/16 06:04:47;;;;;;;10.43;6.13;;;;;;;;;;5114087;28;20720;-82
2024/01/16 06:07:14;;;;;;;9.33;6.37;;;;;;;;;;5113030;28;20623;-82
2024/01/16 06:09:43;;;;;;;9.03;6.20;;;;;;;;;;5114297;28;20283;-80
2024/01/16 06:12:12;;;;;;;9.63;6.20;;;;;;;;;;5113159;28;20255;-80
2024/01/16 06:14:39;;;;;;;10.90;5.73;;;;;;;;;;5113333;28;20233;-80
2024/01/16 06:17:06;;;;;;;7.27;5.73;;;;;;;;;;5113410;28;20244;-79
2024/01/16 06:19:33;;;;;;;7.83;5.03;;;;;;;;;;5113835;28;20201;-81
2024/01/16 06:22:00;;;;;;;8.43;5.83;;;;;;;;;;5113092;28;20201;-79
2024/01/16 06:24:29;;;;;;;10.10;5.33;;;;;;;;;;5113444;28;20288;-78
2024/01/16 06:26:57;;;;;;;8.47;5.43;;;;;;;;;;5112449;28;20254;-79
2024/01/16 06:29:24;;;;;;;8.00;5.83;;;;;;;;;;5113405;28;20244;-80
2024/01/16 06:31:52;;;;;;;11.60;6.47;;;;;;;;;;5113640;28;20228;-83
2024/01/16 06:34:19;;;;;;;8.37;6.03;;;;;;;;;;5113360;28;20309;-82
2024/01/16 06:36:46;;;;;;;9.67;6.57;;;;;;;;;;5112459;28;20216;-79
2024/01/16 06:39:14;;;;;;;9.73;5.80;;;;;;;;;;5113353;28;20204;-79
2024/01/16 06:41:41;;;;;;;10.43;6.20;;;;;;;;;;5112975;28;20698;-79
2024/01/16 06:44:10;;;;;;;9.90;7.60;;;;;;;;;;5112892;28;20674;-77
2024/01/16 06:46:37;;;;;;;13.63;8.73;;;;;;;;;;5112849;28;20284;-77
2024/01/16 06:49:04;;;;;;;14.20;8.60;;;;;;;;;;5112848;27;20229;-78
2024/01/16 06:51:31;;;;;;;11.23;7.10;;;;;;;;;;5112677;28;20229;-78
2024/01/16 06:53:59;;;;;;;10.63;7.00;;;;;;;;;;5113101;28;20227;-78
2024/01/16 06:56:26;;;;;;;10.57;7.40;;;;;;;;;;5112998;28;20232;-78
2024/01/16 06:58:53;;;;;;;9.47;6.67;;;;;;;;;;5112822;28;20212;-78
2024/01/16 07:01:22;;;;;;;105.33;39.70;;;;;;;;;;5113449;28;20196;-78
2024/01/16 07:03:49;;;;;;;240.00;78.90;;;;;;;;;;5112767;28;20616;-78
2024/01/16 07:06:16;;;;;;;40.27;19.93;;;;;;;;;;5112580;28;20290;-78
2024/01/16 07:08:43;;;;;;;18.17;11.27;;;;;;;;;;5113331;28;20623;-79
2024/01/16 07:11:13;;;;;;;17.37;10.07;;;;;;;;;;5112998;28;20221;-77
2024/01/16 07:13:40;;;;;;;14.47;8.63;;;;;;;;;;5112213;28;20615;-78
2024/01/16 07:16:07;;;;;;;13.17;7.37;;;;;;;;;;5113198;28;20277;-77
2024/01/16 07:18:36;;;;;;;14.00;7.83;;;;;;;;;;5112186;27;20198;-78
2024/01/16 07:21:03;;;;;;;13.67;8.47;;;;;;;;;;5112113;28;20205;-78
2024/01/16 07:23:31;;;;;;;10.77;7.57;;;;;;;;;;5113231;28;20259;-78
2024/01/16 07:25:58;;;;;;;10.93;7.20;;;;;;;;;;5112592;28;20222;-78
2024/01/16 07:28:25;;;;;;;10.37;6.93;;;;;;;;;;5112527;28;20225;-78
2024/01/16 07:30:54;;;;;;;9.63;7.00;;;;;;;;;;5112828;27;20199;-78
2024/01/16 07:33:21;;;;;;;11.00;7.93;;;;;;;;;;5112532;28;20197;-78
2024/01/16 07:35:50;;;;;;;22.10;19.77;;;;;;;;;;5111816;28;20318;-79
2024/01/16 07:38:17;;;;;;;17.57;13.43;;;;;;;;;;5112455;28;20222;-78
2024/01/16 07:40:44;;;;;;;37.97;28.83;;;;;;;;;;5112356;28;20653;-79
2024/01/16 07:43:11;;;;;;;27.30;18.47;;;;;;;;;;5112211;28;20298;-79
2024/01/16 07:45:38;;;;;;;17.50;12.97;;;;;;;;;;5112337;28;20205;-79
2024/01/16 07:48:06;;;;;;;16.37;12.70;;;;;;;;;;5111894;28;20289;-79
2024/01/16 07:50:33;;;;;;;12.90;10.63;;;;;;;;;;5112157;28;20220;-78
2024/01/16 07:53:02;;;;;;;12.40;7.23;;;;;;;;;;5111699;28;20285;-78
2024/01/16 07:55:29;;;;;;;10.20;7.43;;;;;;;;;;5112066;28;20254;-78
2024/01/16 07:57:56;;;;;;;10.63;7.43;;;;;;;;;;5111943;28;20198;-79
2024/01/16 08:00:23;;;;;;;10.27;7.03;;;;;;;;;;5112007;28;20224;-78
2024/01/16 08:02:50;;;;;;;10.87;6.50;;;;;;;;;;5112125;28;20252;-78
2024/01/16 08:05:17;;;;;;;9.87;6.40;;;;;;;;;;5112012;28;20290;-79
2024/01/16 08:07:44;;;;;;;8.77;5.90;;;;;;;;;;5111941;28;20231;-79
2024/01/16 08:10:13;;;;;;;8.93;5.40;;;;;;;;;;5112026;28;20225;-79
2024/01/16 08:12:40;;;;;;;7.67;5.23;;;;;;;;;;5111396;28;20234;-79
2024/01/16 08:15:08;;;;;;;5.93;4.47;;;;;;;;;;5111745;28;20317;-78
2024/01/16 08:17:35;;;;;;;10.30;5.10;;;;;;;;;;5111699;28;20200;-78
2024/01/16 08:20:03;;;;;;;10.07;5.23;;;;;;;;;;5112211;28;20286;-79
2024/01/16 08:22:30;;;;;;;8.10;5.00;;;;;;;;;;5111658;28;20580;-79
2024/01/16 08:24:57;;;;;;;9.93;5.07;;;;;;;;;;5111442;28;20234;-79
2024/01/16 08:27:26;;;;;;;9.90;5.50;;;;;;;;;;5111535;28;20233;-78
2024/01/16 08:29:53;;;;;;;9.43;5.27;;;;;;;;;;5112186;28;20646;-79
2024/01/16 08:32:20;;;;;;;7.83;5.17;;;;;;;;;;5111251;28;20197;-79
2024/01/16 08:34:47;;;;;;;7.80;4.83;;;;;;;;;;5111830;28;20319;-79
2024/01/16 08:37:14;;;;;;;10.33;4.53;;;;;;;;;;5111338;28;20288;-79
2024/01/16 08:39:41;;;;;;;9.23;4.97;;;;;;;;;;5111536;28;20647;-79
2024/01/16 08:42:11;;;;;;;7.27;5.00;;;;;;;;;;5111636;28;20201;-78
2024/01/16 08:44:40;;;;;;;9.07;4.93;;;;;;;;;;5111567;28;20223;-79
2024/01/16 08:47:07;;;;;;;8.47;5.63;;;;;;;;;;5111307;28;20189;-79
2024/01/16 08:49:34;;;;;;;9.63;6.00;;;;;;;;;;5111806;28;20669;-79
2024/01/16 08:52:02;;;;;;;8.60;6.07;;;;;;;;;;5115300;28;20197;-78
2024/01/16 08:54:29;;;;;;;8.13;5.83;;;;;;;;;;5115529;28;20319;-79
2024/01/16 08:56:56;;;;;;;15.30;9.80;;;;;;;;;;5115283;28;20250;-79
2024/01/16 08:59:25;;;;;;;15.13;9.30;;;;;;;;;;5115330;28;20254;-79
2024/01/16 09:01:53;;;;;;;10.90;7.23;;;;;;;;;;5115308;28;20632;-78
2024/01/16 09:04:21;;;;;;;12.87;7.23;;;;;;;;;;5114870;28;20212;-78
2024/01/16 09:06:48;;;;;;;8.37;5.70;;;;;;;;;;5115336;28;20211;-79
2024/01/16 09:09:16;;;;;;;10.47;5.30;;;;;;;;;;5115237;28;20624;-79
2024/01/16 09:11:43;;;;;;;9.17;5.90;;;;;;;;;;5115070;28;20253;-79
2024/01/16 09:14:10;;;;;;;8.20;5.60;;;;;;;;;;5114631;28;20320;-79
2024/01/16 09:16:37;;;;;;;7.77;5.37;;;;;;;;;;5114441;28;20753;-79
2024/01/16 09:19:06;;;;;;;7.87;5.30;;;;;;;;;;5114910;28;20193;-79
2024/01/16 09:21:33;;;;;;;10.47;4.90;;;;;;;;;;5115067;28;20334;-79
2024/01/16 09:24:00;;;;;;;9.13;4.30;;;;;;;;;;5115076;27;20276;-78
2024/01/16 09:26:27;;;;;;;8.33;4.23;;;;;;;;;;5114638;28;20230;-78
2024/01/16 09:28:54;;;;;;;8.10;4.03;;;;;;;;;;5114922;28;20521;-79
2024/01/16 09:31:22;;;;;;;7.10;3.97;;;;;;;;;;5114697;28;20248;-79
2024/01/16 09:33:49;;;;;;;6.60;4.37;;;;;;;;;;5114667;28;20213;-78
2024/01/16 09:36:18;;;;;;;6.93;3.93;;;;;;;;;;5114458;28;20225;-79
2024/01/16 09:38:45;;;;;;;5.60;4.03;;;;;;;;;;5114723;28;20633;-78
2024/01/16 09:41:12;;;;;;;6.80;4.30;;;;;;;;;;5114668;28;20671;-79
2024/01/16 09:43:39;;;;;;;6.53;4.10;;;;;;;;;;5114379;28;20638;-79
2024/01/16 09:46:07;;;;;;;9.90;6.97;;;;;;;;;;5114324;28;20288;-79
2024/01/16 09:48:34;;;;;;;8.47;6.50;;;;;;;;;;5114567;28;20670;-79
2024/01/16 09:51:01;;;;;;;8.10;5.87;;;;;;;;;;5114094;28;20714;-79
2024/01/16 09:53:30;;;;;;;7.67;4.90;;;;;;;;;;5114731;28;20196;-79
2024/01/16 09:56:01;;;;;;;7.63;5.13;;;;;;;;;;5114063;28;20233;-79
2024/01/16 09:58:29;;;;;;;8.67;5.80;;;;;;;;;;5113854;28;20284;-79
2024/01/16 10:00:57;;;;;;;10.90;6.10;;;;;;;;;;5113974;28;20192;-79
2024/01/16 10:03:25;;;;;;;10.70;5.77;;;;;;;;;;5113922;28;20671;-80
2024/01/16 10:05:52;;;;;;;9.90;6.27;;;;;;;;;;5114030;28;20210;-79
2024/01/16 10:08:21;;;;;;;9.70;6.13;;;;;;;;;;5113872;28;20238;-79
2024/01/16 10:10:50;;;;;;;8.60;5.87;;;;;;;;;;5114209;28;20197;-79
2024/01/16 10:13:18;;;;;;;10.67;7.50;;;;;;;;;;5113289;28;20702;-79
2024/01/16 10:15:46;;;;;;;10.00;7.57;;;;;;;;;;5113925;28;20308;-79
2024/01/16 10:18:24;;;;;;;26.07;17.67;;;;;;;;;;5113625;28;20562;-79
2024/01/16 10:20:52;;;;;;;26.77;18.17;;;;;;;;;;5114106;28;20194;-80
2024/01/16 10:23:23;;;;;;;27.67;16.40;;;;;;;;;;5113755;28;20670;-80
2024/01/16 10:26:06;;;;;;;35.87;21.17;;;;;;;;;;5113508;28;20205;-80
2024/01/16 10:28:34;;;;;;;42.13;28.60;;;;;;;;;;5113338;28;20247;-80
2024/01/16 10:31:03;;;;;;;34.13;23.30;;;;;;;;;;5113478;28;20254;-80
2024/01/16 10:33:30;;;;;;;30.00;20.10;;;;;;;;;;5113675;28;20197;-79
2024/01/16 10:36:09;;;;;;;27.87;18.47;;;;;;;;;;5113495;28;20596;-80
2024/01/16 10:38:38;;;;;;;73.63;42.07;;;;;;;;;;5113365;28;20201;-80
2024/01/16 10:41:13;;;;;;;77.90;44.87;;;;;;;;;;5113433;28;20193;-80
2024/01/16 10:43:40;;;;;;;59.40;35.17;;;;;;;;;;5112572;28;20280;-80
2024/01/16 10:46:13;;;;;;;41.40;24.67;;;;;;;;;;5113485;28;20293;-80
2024/01/16 10:48:41;;;;;;;27.47;16.43;;;;;;;;;;5113273;28;20280;-81
2024/01/16 10:51:09;;;;;;;31.40;18.70;;;;;;;;;;5113391;28;20194;-80
2024/01/16 10:53:36;;;;;;;47.17;27.37;;;;;;;;;;5112879;28;20194;-80
2024/01/16 10:56:04;;;;;;;42.27;24.43;;;;;;;;;;5113378;28;20320;-80
2024/01/16 10:58:33;;;;;;;35.97;21.37;;;;;;;;;;5112732;28;20293;-80
2024/01/16 11:01:03;;;;;;;10.13;6.40;;;;;;;;;;5112924;28;20193;-81
2024/01/16 11:03:34;;;;;;;5.87;3.00;;;;;;;;;;5113177;28;20197;-80
2024/01/16 11:06:03;;;;;;;5.90;2.83;;;;;;;;;;5112620;28;20272;-79
2024/01/16 11:08:33;;;;;;;10.87;4.20;;;;;;;;;;5112648;28;20194;-80
2024/01/16 11:11:00;;;;;;;11.83;5.47;;;;;;;;;;5112316;28;20648;-80
2024/01/16 11:13:28;;;;;;;14.83;7.30;;;;;;;;;;5111934;28;20705;-80
2024/01/16 11:15:57;;;;;;;10.40;5.23;;;;;;;;;;5112828;28;20323;-79
2024/01/16 11:18:26;;;;;;;8.20;3.57;;;;;;;;;;5112681;28;20198;-79
2024/01/16 11:20:54;;;;;;;11.63;4.80;;;;;;;;;;5112527;28;20204;-80
2024/01/16 11:23:21;;;;;;;9.90;4.63;;;;;;;;;;5112780;28;20201;-81
2024/01/16 11:25:48;;;;;;;8.97;4.03;;;;;;;;;;5112136;28;20259;-79
2024/01/16 11:28:17;;;;;;;11.53;4.63;;;;;;;;;;5112516;28;20577;-79
2024/01/16 11:30:44;;;;;;;9.33;4.80;;;;;;;;;;5112665;28;20211;-80
2024/01/16 11:33:26;;;;;;;10.33;4.27;;;;;;;;;;5112127;28;20207;-80
2024/01/16 11:35:55;;;;;;;10.67;4.50;;;;;;;;;;5111747;28;20256;-79
2024/01/16 11:38:23;;;;;;;5.73;3.33;;;;;;;;;;5112298;28;20224;-80
2024/01/16 11:40:50;;;;;;;6.10;3.23;;;;;;;;;;5112473;28;20209;-79
2024/01/16 11:43:32;;;;;;;6.93;3.23;;;;;;;;;;5112100;28;20292;-80
2024/01/16 11:45:59;;;;;;;8.37;3.53;;;;;;;;;;5111228;28;20284;-81
2024/01/16 11:48:26;;;;;;;8.03;3.50;;;;;;;;;;5111650;28;20655;-80
2024/01/16 11:50:55;;;;;;;10.57;4.30;;;;;;;;;;5112404;28;20252;-79
2024/01/16 11:53:39;;;;;;;9.73;3.80;;;;;;;;;;5112147;28;20228;-79
2024/01/16 11:56:30;;;;;;;17.43;6.47;;;;;;;;;;5111724;28;20278;-80
2024/01/16 11:59:04;;;;;;;11.03;5.93;;;;;;;;;;5112135;28;20290;-80
2024/01/16 12:01:32;;;;;;;11.17;7.07;;;;;;;;;;5112030;28;20677;-81
2024/01/16 12:04:03;;;;;;;10.77;5.53;;;;;;;;;;5111558;28;20748;-81
2024/01/16 12:06:32;;;;;;;5.40;3.23;;;;;;;;;;5111946;28;20575;-79
2024/01/16 12:09:12;;;;;;;9.83;4.97;;;;;;;;;;5111538;28;20198;-80
2024/01/16 12:11:40;;;;;;;13.27;7.77;;;;;;;;;;5111573;28;20193;-80
2024/01/16 12:14:07;;;;;;;8.33;3.40;;;;;;;;;;5111987;28;20225;-80
2024/01/16 12:16:34;;;;;;;9.47;3.63;;;;;;;;;;5111811;28;20800;-80
2024/01/16 12:19:08;;;;;;;9.33;4.67;;;;;;;;;;5111531;28;20643;-79
2024/01/16 12:21:37;;;;;;;9.53;4.57;;;;;;;;;;5112153;28;20197;-80
2024/01/16 12:24:04;;;;;;;8.57;5.23;;;;;;;;;;5111364;28;20200;-80
2024/01/16 12:26:32;;;;;;;9.43;3.40;;;;;;;;;;5115433;28;20262;-79
2024/01/16 12:29:00;;;;;;;4.60;2.80;;;;;;;;;;5115932;28;20276;-79
2024/01/16 12:31:28;;;;;;;5.60;2.80;;;;;;;;;;5116034;28;20192;-80
2024/01/16 12:33:56;;;;;;;8.17;3.50;;;;;;;;;;5115609;28;20654;-80
2024/01/16 12:36:23;;;;;;;8.90;4.87;;;;;;;;;;5115714;28;20308;-80
2024/01/16 12:38:57;;;;;;;6.90;3.23;;;;;;;;;;5115641;28;20225;-80
2024/01/16 12:41:25;;;;;;;3.57;2.07;;;;;;;;;;5115336;28;20572;-81
2024/01/16 12:43:52;;;;;;;10.93;6.53;;;;;;;;;;5115511;27;20285;-79
2024/01/16 12:46:20;;;;;;;15.67;8.43;;;;;;;;;;5115710;28;20600;-80
2024/01/16 12:48:48;;;;;;;10.40;5.70;;;;;;;;;;5115458;28;20572;-78
2024/01/16 12:51:22;;;;;;;7.27;4.30;;;;;;;;;;5115678;28;20284;-80
2024/01/16 12:53:50;;;;;;;9.43;5.70;;;;;;;;;;5115569;28;20190;-80
2024/01/16 12:56:21;;;;;;;7.20;3.90;;;;;;;;;;5115334;28;20279;-79
2024/01/16 12:58:48;;;;;;;8.50;4.90;;;;;;;;;;5115513;28;20193;-79
2024/01/16 13:01:22;;;;;;;9.53;5.57;;;;;;;;;;5115820;28;20288;-81
2024/01/16 13:03:51;;;;;;;8.00;4.17;;;;;;;;;;5115393;28;20224;-81
2024/01/16 13:06:19;;;;;;;10.10;4.30;;;;;;;;;;5115391;28;20194;-80
2024/01/16 13:08:47;;;;;;;6.40;3.17;;;;;;;;;;5114816;28;20678;-80
2024/01/16 13:11:16;;;;;;;7.07;2.87;;;;;;;;;;5114947;28;20221;-79
2024/01/16 13:13:44;;;;;;;5.80;2.80;;;;;;;;;;5115217;28;20229;-80
2024/01/16 13:16:11;;;;;;;9.47;6.87;;;;;;;;;;5114956;28;20229;-80
2024/01/16 13:18:39;;;;;;;7.67;3.90;;;;;;;;;;5114862;28;20296;-80
2024/01/16 13:21:06;;;;;;;4.10;2.53;;;;;;;;;;5114968;28;20658;-80
2024/01/16 13:23:32;;;;;;;8.17;3.17;;;;;;;;;;5114476;28;20638;-80
2024/01/16 13:26:00;;;;;;;7.70;2.37;;;;;;;;;;5115092;28;20218;-80
2024/01/16 13:28:27;;;;;;;7.30;2.93;;;;;;;;;;5114834;28;20669;-80
2024/01/16 13:30:56;;;;;;;5.77;3.47;;;;;;;;;;5115256;28;20198;-80
2024/01/16 13:33:26;;;;;;;6.93;3.77;;;;;;;;;;5114760;28;20288;-79
2024/01/16 13:35:54;;;;;;;5.67;3.83;;;;;;;;;;5113984;28;20224;-79
2024/01/16 13:38:21;;;;;;;8.50;3.60;;;;;;;;;;5114494;27;20226;-80
2024/01/16 13:40:50;;;;;;;5.10;3.53;;;;;;;;;;5114702;28;20233;-80
2024/01/16 13:43:17;;;;;;;5.87;3.00;;;;;;;;;;5115028;28;20202;-79
2024/01/16 13:45:44;;;;;;;8.13;4.60;;;;;;;;;;5114507;28;20198;-79
2024/01/16 13:48:13;;;;;;;8.83;3.83;;;;;;;;;;5114503;28;20280;-80
2024/01/16 13:50:40;;;;;;;5.07;2.90;;;;;;;;;;5114138;28;20221;-79
2024/01/16 13:53:07;;;;;;;6.40;2.80;;;;;;;;;;5114605;28;20274;-81
2024/01/16 13:55:34;;;;;;;9.07;4.23;;;;;;;;;;5114397;28;20642;-80
2024/01/16 13:58:02;;;;;;;5.57;3.80;;;;;;;;;;5114067;28;20292;-80
2024/01/16 14:00:29;;;;;;;4.77;3.20;;;;;;;;;;5113869;28;20670;-79
2024/01/16 14:02:56;;;;;;;6.50;3.63;;;;;;;;;;5114221;28;20219;-81
2024/01/16 14:05:26;;;;;;;5.67;3.97;;;;;;;;;;5114299;28;20277;-80
2024/01/16 14:07:54;;;;;;;8.77;5.20;;;;;;;;;;5114203;28;20221;-80
2024/01/16 14:10:22;;;;;;;8.00;4.20;;;;;;;;;;5113936;27;20661;-80
2024/01/16 14:12:50;;;;;;;5.80;3.17;;;;;;;;;;5113494;27;20698;-80
2024/01/16 14:15:20;;;;;;;4.97;2.63;;;;;;;;;;5113870;27;20293;-80
2024/01/16 14:17:48;;;;;;;6.27;2.80;;;;;;;;;;5112429;28;20258;-80
2024/01/16 14:20:16;;;;;;;3.00;2.23;;;;;;;;;;5113535;28;20346;-79
2024/01/16 14:22:44;;;;;;;4.63;2.37;;;;;;;;;;5113828;28;20225;-80
2024/01/16 14:25:14;;;;;;;4.73;2.40;;;;;;;;;;5113556;28;20681;-79
2024/01/16 14:27:42;;;;;;;3.63;2.60;;;;;;;;;;5113951;28;20190;-79
2024/01/16 14:30:10;;;;;;;4.70;2.40;;;;;;;;;;5113673;28;20233;-80
2024/01/16 14:32:38;;;;;;;8.33;2.53;;;;;;;;;;5113575;28;20201;-80
2024/01/16 14:35:07;;;;;;;4.10;2.37;;;;;;;;;;5113343;28;20680;-79
2024/01/16 14:37:34;;;;;;;7.10;2.80;;;;;;;;;;5113368;28;20226;-79